createdAt,value
2018-07-12T00:00:51.409Z,0.00
2018-07-12T00:01:51.377Z,0.00
2018-07-12T00:02:51.345Z,0.00
2018-07-12T00:03:51.311Z,0.00
2018-07-12T00:04:51.272Z,0.00
2018-07-12T00:05:51.242Z,0.00
2018-07-12T00:06:51.212Z,0.00
2018-07-12T00:07:51.167Z,0.00
2018-07-12T00:08:51.141Z,0.00
2018-07-12T00:09:51.107Z,0.00
2018-07-12T00:10:51.075Z,0.00
2018-07-12T00:11:51.042Z,0.00
2018-07-12T00:12:51.000Z,0.00
2018-07-12T00:13:50.971Z,0.00
2018-07-12T00:14:50.936Z,0.00
2018-07-12T00:15:50.899Z,0.00
2018-07-12T00:16:50.874Z,0.00
2018-07-12T00:17:50.836Z,0.00
2018-07-12T00:18:50.800Z,0.00
2018-07-12T00:19:50.764Z,0.00
2018-07-12T00:20:50.736Z,0.00
2018-07-12T00:21:50.700Z,0.00
2018-07-12T00:22:50.668Z,0.00
2018-07-12T00:23:50.637Z,0.00
2018-07-12T00:24:50.596Z,0.00
2018-07-12T00:25:50.562Z,0.00
2018-07-12T00:26:50.529Z,0.00
2018-07-12T00:27:50.491Z,0.00
2018-07-12T00:28:50.465Z,0.00
2018-07-12T00:29:50.430Z,0.00
2018-07-12T00:30:50.398Z,0.00
2018-07-12T00:31:50.361Z,0.00
2018-07-12T00:32:50.324Z,0.00
2018-07-12T00:33:50.330Z,0.00
2018-07-12T00:34:50.261Z,0.00
2018-07-12T00:35:50.227Z,0.00
2018-07-12T00:36:50.185Z,0.00
2018-07-12T00:37:50.158Z,0.00
2018-07-12T00:38:50.123Z,0.00
2018-07-12T00:39:50.085Z,0.00
2018-07-12T00:40:50.061Z,0.00
2018-07-12T00:41:50.024Z,0.00
2018-07-12T00:42:49.991Z,0.00
2018-07-12T00:43:49.959Z,0.00
2018-07-12T00:44:49.915Z,0.00
2018-07-12T00:45:49.889Z,0.00
2018-07-12T00:46:49.856Z,0.00
2018-07-12T00:47:49.818Z,0.00
2018-07-12T00:48:49.789Z,0.00
2018-07-12T00:49:49.756Z,0.00
2018-07-12T00:50:49.720Z,0.00
2018-07-12T00:51:49.685Z,0.00
2018-07-12T00:52:49.654Z,0.00
2018-07-12T00:53:49.618Z,0.00
2018-07-12T00:54:49.586Z,0.00
2018-07-12T00:55:49.551Z,0.00
2018-07-12T00:56:49.552Z,0.00
2018-07-12T00:57:49.481Z,0.00
2018-07-12T00:58:49.450Z,0.00
2018-07-12T00:59:49.410Z,0.00
2018-07-12T01:00:49.383Z,0.00
2018-07-12T01:01:49.348Z,0.00
2018-07-12T01:02:49.316Z,0.00
2018-07-12T01:03:49.281Z,0.00
2018-07-12T01:04:49.243Z,0.00
2018-07-12T01:05:49.211Z,0.00
2018-07-12T01:06:49.180Z,0.00
2018-07-12T01:07:49.145Z,0.00
2018-07-12T01:08:49.106Z,0.00
2018-07-12T01:09:49.074Z,0.00
2018-07-12T01:10:49.041Z,0.00
2018-07-12T01:11:49.002Z,0.00
2018-07-12T01:12:48.977Z,0.00
2018-07-12T01:13:48.944Z,0.00
2018-07-12T01:14:48.912Z,0.00
2018-07-12T01:15:48.876Z,0.00
2018-07-12T01:16:48.837Z,0.00
2018-07-12T01:17:48.805Z,0.00
2018-07-12T01:18:48.772Z,0.00
2018-07-12T01:19:48.741Z,0.00
2018-07-12T01:20:48.708Z,0.00
2018-07-12T01:21:48.672Z,0.00
2018-07-12T01:22:48.638Z,0.00
2018-07-12T01:23:48.599Z,0.00
2018-07-12T01:24:48.579Z,0.00
2018-07-12T01:25:48.539Z,0.00
2018-07-12T01:26:48.503Z,0.00
2018-07-12T01:27:48.468Z,0.00
2018-07-12T01:28:48.429Z,0.00
2018-07-12T01:29:48.400Z,0.00
2018-07-12T01:30:48.366Z,0.00
2018-07-12T01:31:48.329Z,0.00
2018-07-12T01:32:48.300Z,0.00
2018-07-12T01:33:48.265Z,0.00
2018-07-12T01:34:48.233Z,0.00
2018-07-12T01:35:48.197Z,0.00
2018-07-12T01:36:48.162Z,0.00
2018-07-12T01:37:48.127Z,0.00
2018-07-12T01:38:48.098Z,0.00
2018-07-12T01:39:48.064Z,0.00
2018-07-12T01:40:48.022Z,0.00
2018-07-12T01:41:47.992Z,0.00
2018-07-12T01:42:47.958Z,0.00
2018-07-12T01:43:47.918Z,0.00
2018-07-12T01:44:47.892Z,0.00
2018-07-12T01:45:47.859Z,0.00
2018-07-12T01:46:47.824Z,0.00
2018-07-12T01:47:47.793Z,0.00
2018-07-12T01:48:47.749Z,0.00
2018-07-12T01:49:47.731Z,0.00
2018-07-12T01:50:47.687Z,0.00
2018-07-12T01:51:47.652Z,0.00
2018-07-12T01:52:47.622Z,0.00
2018-07-12T01:53:47.589Z,0.00
2018-07-12T01:54:47.553Z,0.00
2018-07-12T01:55:47.517Z,0.00
2018-07-12T01:56:47.490Z,0.00
2018-07-12T01:57:47.452Z,0.00
2018-07-12T01:59:10.293Z,0.00
2018-07-12T01:59:47.381Z,0.00
2018-07-12T02:00:47.350Z,0.00
2018-07-12T02:01:47.318Z,0.00
2018-07-12T02:02:47.277Z,0.00
2018-07-12T02:03:47.255Z,0.00
2018-07-12T02:04:47.221Z,0.00
2018-07-12T02:05:47.183Z,0.00
2018-07-12T02:06:47.149Z,0.00
2018-07-12T02:07:47.110Z,0.00
2018-07-12T02:08:47.077Z,0.00
2018-07-12T02:09:47.047Z,0.00
2018-07-12T02:10:47.014Z,0.00
2018-07-12T02:11:46.976Z,0.00
2018-07-12T02:12:46.945Z,0.00
2018-07-12T02:13:46.913Z,0.00
2018-07-12T02:14:46.870Z,0.00
2018-07-12T02:15:46.848Z,0.00
2018-07-12T02:16:46.809Z,0.00
2018-07-12T02:17:46.779Z,0.00
2018-07-12T02:18:46.746Z,0.00
2018-07-12T02:19:46.707Z,0.00
2018-07-12T02:20:46.671Z,0.00
2018-07-12T02:21:46.640Z,0.00
2018-07-12T02:22:46.607Z,0.00
2018-07-12T02:23:46.576Z,0.00
2018-07-12T02:24:46.544Z,0.00
2018-07-12T02:25:46.504Z,0.00
2018-07-12T02:26:46.472Z,0.00
2018-07-12T02:27:46.439Z,0.00
2018-07-12T02:28:46.408Z,0.00
2018-07-12T02:29:46.375Z,0.00
2018-07-12T02:30:46.339Z,0.00
2018-07-12T02:31:46.305Z,0.00
2018-07-12T02:32:46.269Z,0.00
2018-07-12T02:33:46.232Z,0.00
2018-07-12T02:34:46.203Z,0.00
2018-07-12T02:35:46.169Z,0.00
2018-07-12T02:36:46.141Z,0.00
2018-07-12T02:37:46.104Z,0.00
2018-07-12T02:38:46.070Z,0.00
2018-07-12T02:39:46.033Z,0.00
2018-07-12T02:40:45.994Z,0.00
2018-07-12T02:41:45.969Z,0.00
2018-07-12T02:42:45.937Z,0.00
2018-07-12T02:43:45.920Z,0.00
2018-07-12T02:44:45.862Z,0.00
2018-07-12T02:45:45.829Z,0.00
2018-07-12T02:46:45.798Z,0.00
2018-07-12T02:47:45.764Z,0.00
2018-07-12T02:48:45.733Z,0.00
2018-07-12T02:49:45.699Z,0.00
2018-07-12T02:50:45.665Z,0.00
2018-07-12T02:51:45.627Z,0.00
2018-07-12T02:52:45.590Z,0.00
2018-07-12T02:53:45.553Z,0.00
2018-07-12T02:54:45.530Z,0.00
2018-07-12T02:55:45.494Z,0.00
2018-07-12T02:56:45.460Z,0.00
2018-07-12T02:57:45.423Z,0.00
2018-07-12T02:58:45.392Z,0.00
2018-07-12T02:59:45.358Z,0.00
2018-07-12T03:00:45.325Z,0.00
2018-07-12T03:01:45.300Z,0.00
2018-07-12T03:02:45.258Z,0.00
2018-07-12T03:03:45.219Z,0.00
2018-07-12T03:04:45.184Z,0.00
2018-07-12T03:05:45.152Z,0.00
2018-07-12T03:06:45.123Z,0.00
2018-07-12T03:07:45.094Z,0.00
2018-07-12T03:08:45.056Z,0.00
2018-07-12T03:09:45.022Z,0.00
2018-07-12T03:10:44.987Z,0.00
2018-07-12T03:11:44.951Z,0.00
2018-07-12T03:12:44.912Z,0.00
2018-07-12T03:13:44.889Z,0.00
2018-07-12T03:14:44.851Z,0.00
2018-07-12T03:15:44.813Z,0.00
2018-07-12T03:16:44.780Z,0.00
2018-07-12T03:17:44.747Z,0.00
2018-07-12T03:18:44.714Z,0.00
2018-07-12T03:19:44.681Z,0.00
2018-07-12T03:20:44.650Z,0.00
2018-07-12T03:21:44.622Z,0.00
2018-07-12T03:22:44.580Z,0.00
2018-07-12T03:23:44.544Z,0.00
2018-07-12T03:24:44.508Z,0.00
2018-07-12T03:25:44.472Z,0.00
2018-07-12T03:26:44.464Z,0.00
2018-07-12T03:27:44.412Z,0.00
2018-07-12T03:28:44.379Z,0.00
2018-07-12T03:29:44.338Z,0.00
2018-07-12T03:30:44.309Z,0.00
2018-07-12T03:31:44.275Z,0.00
2018-07-12T03:32:44.242Z,0.00
2018-07-12T03:33:44.210Z,0.00
2018-07-12T03:34:44.175Z,0.00
2018-07-12T03:35:44.138Z,0.00
2018-07-12T03:36:44.105Z,0.00
2018-07-12T03:37:44.068Z,0.00
2018-07-12T03:38:44.037Z,0.00
2018-07-12T03:39:44.006Z,0.00
2018-07-12T03:40:43.974Z,0.00
2018-07-12T03:41:43.974Z,0.00
2018-07-12T03:42:43.905Z,0.00
2018-07-12T03:43:43.869Z,0.00
2018-07-12T03:44:43.832Z,0.00
2018-07-12T03:45:43.808Z,0.00
2018-07-12T03:46:43.770Z,0.00
2018-07-12T03:47:43.739Z,0.00
2018-07-12T03:48:43.697Z,0.00
2018-07-12T03:49:43.660Z,0.00
2018-07-12T03:50:43.634Z,0.00
2018-07-12T03:51:43.601Z,0.00
2018-07-12T04:08:28.856Z,0.00
2018-07-12T04:09:28.772Z,0.00
2018-07-12T04:10:28.740Z,0.00
2018-07-12T04:11:28.701Z,0.00
2018-07-12T04:12:28.662Z,0.00
2018-07-12T04:13:28.620Z,0.00
2018-07-12T04:14:28.589Z,0.00
2018-07-12T04:15:28.551Z,0.00
2018-07-12T04:16:28.514Z,0.00
2018-07-12T04:17:28.478Z,0.00
2018-07-12T04:18:28.433Z,0.00
2018-07-12T04:19:28.403Z,0.00
2018-07-12T04:20:28.367Z,0.00
2018-07-12T04:21:28.331Z,0.00
2018-07-12T04:22:28.301Z,0.00
2018-07-12T04:23:28.264Z,0.00
2018-07-12T04:24:28.230Z,0.00
2018-07-12T04:25:28.195Z,0.00
2018-07-12T04:26:28.155Z,0.00
2018-07-12T04:27:28.123Z,0.00
2018-07-12T04:28:28.090Z,0.00
2018-07-12T04:29:28.057Z,0.00
2018-07-12T04:30:28.019Z,0.00
2018-07-12T04:31:27.986Z,0.00
2018-07-12T04:32:27.953Z,0.00
2018-07-12T04:33:27.912Z,0.00
2018-07-12T04:34:27.887Z,0.00
2018-07-12T04:35:27.850Z,0.00
2018-07-12T04:36:27.817Z,0.00
2018-07-12T04:37:27.785Z,0.00
2018-07-12T04:38:27.740Z,0.00
2018-07-12T04:39:27.711Z,0.00
2018-07-12T04:40:27.675Z,0.00
2018-07-12T04:41:27.635Z,0.00
2018-07-12T04:42:27.613Z,0.00
2018-07-12T04:43:27.577Z,0.00
2018-07-12T04:44:27.541Z,0.00
2018-07-12T04:45:27.500Z,0.00
2018-07-12T04:46:27.476Z,0.00
2018-07-12T04:47:27.440Z,0.00
2018-07-12T04:48:27.406Z,0.00
2018-07-12T04:49:27.374Z,0.00
2018-07-12T04:50:27.334Z,0.00
2018-07-12T04:51:27.303Z,0.00
2018-07-12T04:52:27.268Z,0.00
2018-07-12T04:53:27.228Z,0.00
2018-07-12T04:54:27.204Z,0.00
2018-07-12T04:55:27.165Z,0.00
2018-07-12T04:56:27.135Z,0.00
2018-07-12T04:57:27.100Z,0.00
2018-07-12T04:58:27.081Z,0.00
2018-07-12T04:59:27.033Z,0.00
2018-07-12T05:00:26.999Z,0.00
2018-07-12T05:01:26.967Z,0.00
2018-07-12T05:02:26.926Z,0.00
2018-07-12T05:03:26.894Z,0.00
2018-07-12T05:04:26.863Z,0.00
2018-07-12T05:05:26.822Z,0.00
2018-07-12T05:06:26.798Z,0.00
2018-07-12T05:07:26.765Z,0.00
2018-07-12T05:08:26.728Z,0.00
2018-07-12T05:09:26.696Z,0.00
2018-07-12T05:10:26.652Z,0.00
2018-07-12T05:11:26.625Z,0.00
2018-07-12T05:12:26.594Z,0.00
2018-07-12T05:13:26.551Z,0.00
2018-07-12T05:14:26.525Z,0.00
2018-07-12T05:15:26.492Z,0.00
2018-07-12T05:16:26.456Z,0.00
2018-07-12T05:17:26.420Z,0.00
2018-07-12T05:18:26.393Z,0.00
2018-07-12T05:19:26.358Z,0.00
2018-07-12T05:20:26.337Z,0.00
2018-07-12T05:21:26.291Z,0.00
2018-07-12T05:22:26.248Z,0.00
2018-07-12T05:23:26.220Z,0.00
2018-07-12T05:24:26.186Z,0.00
2018-07-12T05:25:26.150Z,0.00
2018-07-12T05:26:26.124Z,0.00
2018-07-12T05:27:26.088Z,0.00
2018-07-12T05:28:26.053Z,0.00
2018-07-12T05:29:26.020Z,0.00
2018-07-12T05:30:26.020Z,0.00
2018-07-12T05:31:25.950Z,0.00
2018-07-12T05:32:25.918Z,0.00
2018-07-12T05:33:25.887Z,0.00
2018-07-12T05:34:25.850Z,0.00
2018-07-12T05:35:25.816Z,0.00
2018-07-12T05:36:25.780Z,0.00
2018-07-12T05:37:25.746Z,0.00
2018-07-12T05:38:25.718Z,0.00
2018-07-12T05:39:25.684Z,0.00
2018-07-12T05:40:25.650Z,0.00
2018-07-12T05:41:25.615Z,0.00
2018-07-12T05:42:25.576Z,0.00
2018-07-12T05:43:25.547Z,0.00
2018-07-12T05:44:25.514Z,0.00
2018-07-12T05:45:25.477Z,0.00
2018-07-12T05:46:25.446Z,0.00
2018-07-12T05:47:25.414Z,0.00
2018-07-12T05:48:25.380Z,0.00
2018-07-12T05:49:25.339Z,0.00
2018-07-12T05:50:25.314Z,0.00
2018-07-12T05:51:25.287Z,0.00
2018-07-12T05:52:25.244Z,0.00
2018-07-12T05:53:25.220Z,0.00
2018-07-12T05:54:25.173Z,0.00
2018-07-12T05:55:25.142Z,0.00
2018-07-12T05:56:25.105Z,0.00
2018-07-12T05:57:25.079Z,0.00
2018-07-12T05:58:25.043Z,0.00
2018-07-12T05:59:25.010Z,0.00
2018-07-12T06:00:24.977Z,0.00
2018-07-12T06:01:24.941Z,0.00
2018-07-12T06:02:24.901Z,0.00
2018-07-12T06:03:24.869Z,0.00
2018-07-12T06:04:24.840Z,0.00
2018-07-12T06:05:24.803Z,0.00
2018-07-12T06:06:24.769Z,0.00
2018-07-12T06:07:24.734Z,0.00
2018-07-12T06:08:24.705Z,0.00
2018-07-12T06:09:24.669Z,0.00
2018-07-12T06:10:24.668Z,0.00
2018-07-12T06:11:24.606Z,0.00
2018-07-12T06:12:24.574Z,0.00
2018-07-12T06:13:24.537Z,0.00
2018-07-12T06:14:24.500Z,0.00
2018-07-12T06:15:24.472Z,0.00
2018-07-12T06:16:24.447Z,0.00
2018-07-12T06:17:24.400Z,0.00
2018-07-12T06:18:24.370Z,0.00
2018-07-12T06:19:24.338Z,0.00
2018-07-12T06:20:24.296Z,0.00
2018-07-12T06:21:24.265Z,0.00
2018-07-12T06:22:24.235Z,0.00
2018-07-12T06:23:24.203Z,0.00
2018-07-12T06:24:24.169Z,0.00
2018-07-12T06:25:24.133Z,0.00
2018-07-12T06:26:24.099Z,0.00
2018-07-12T06:27:24.061Z,0.00
2018-07-12T06:28:24.032Z,0.00
2018-07-12T06:29:23.998Z,0.00
2018-07-12T06:30:23.965Z,0.00
2018-07-12T06:31:23.933Z,0.00
2018-07-12T06:32:23.904Z,0.00
2018-07-12T06:33:23.864Z,0.00
2018-07-12T06:34:23.830Z,0.00
2018-07-12T06:35:23.794Z,0.00
2018-07-12T06:36:23.766Z,0.00
2018-07-12T06:37:23.730Z,0.00
2018-07-12T06:38:23.700Z,0.00
2018-07-12T06:39:23.659Z,0.00
2018-07-12T06:40:23.624Z,0.00
2018-07-12T06:41:23.593Z,0.00
2018-07-12T06:42:23.562Z,0.00
2018-07-12T06:43:23.531Z,0.00
2018-07-12T06:44:23.499Z,0.00
2018-07-12T06:45:23.463Z,0.00
2018-07-12T06:46:23.427Z,0.00
2018-07-12T06:47:23.392Z,0.00
2018-07-12T06:48:23.355Z,0.00
2018-07-12T06:49:23.326Z,0.00
2018-07-12T06:50:23.298Z,0.00
2018-07-12T06:51:23.263Z,0.00
2018-07-12T06:52:23.226Z,0.00
2018-07-12T06:53:23.191Z,0.00
2018-07-12T06:54:23.162Z,0.00
2018-07-12T06:55:23.129Z,0.00
2018-07-12T06:56:23.097Z,0.00
2018-07-12T06:57:23.062Z,0.00
2018-07-12T06:58:23.030Z,0.00
2018-07-12T06:59:22.989Z,0.00
2018-07-12T07:00:22.955Z,0.00
2018-07-12T07:01:22.929Z,0.00
2018-07-12T07:02:22.895Z,0.00
2018-07-12T07:03:22.862Z,0.00
2018-07-12T07:04:22.830Z,0.00
2018-07-12T07:05:22.795Z,0.00
2018-07-12T07:06:22.759Z,0.00
2018-07-12T07:07:22.727Z,0.00
2018-07-12T07:08:22.697Z,0.00
2018-07-12T07:09:22.661Z,0.00
2018-07-12T07:10:22.626Z,0.00
2018-07-12T07:11:22.630Z,0.00
2018-07-12T07:12:22.561Z,0.00
2018-07-12T07:13:22.532Z,0.00
2018-07-12T07:14:22.494Z,0.00
2018-07-12T07:15:22.464Z,0.00
2018-07-12T07:16:22.429Z,0.00
2018-07-12T07:17:22.396Z,0.00
2018-07-12T07:18:22.363Z,0.00
2018-07-12T07:19:22.327Z,0.00
2018-07-12T07:20:22.294Z,0.00
2018-07-12T07:21:22.262Z,0.00
2018-07-12T07:22:22.243Z,0.00
2018-07-12T07:23:22.199Z,0.00
2018-07-12T07:24:22.160Z,0.00
2018-07-12T07:25:22.132Z,0.00
2018-07-12T07:26:22.192Z,0.00
2018-07-12T07:27:22.067Z,0.00
2018-07-12T07:28:22.036Z,0.00
2018-07-12T07:29:22.004Z,0.00
2018-07-12T07:30:21.967Z,0.00
2018-07-12T07:31:21.932Z,0.00
2018-07-12T07:32:21.928Z,0.00
2018-07-12T07:33:21.878Z,0.00
2018-07-12T07:34:21.902Z,0.00
2018-07-12T07:35:21.807Z,0.00
2018-07-12T07:36:21.776Z,0.00
2018-07-12T07:37:21.743Z,0.00
2018-07-12T07:38:21.720Z,0.00
2018-07-12T07:39:21.674Z,0.00
2018-07-12T07:40:21.647Z,0.00
2018-07-12T07:41:21.612Z,0.00
2018-07-12T07:42:21.578Z,0.00
2018-07-12T07:43:21.601Z,0.19
2018-07-12T07:44:21.512Z,0.67
2018-07-12T07:45:21.479Z,4.90
2018-07-12T07:46:21.451Z,4.13
2018-07-12T07:47:21.419Z,3.65
2018-07-12T07:48:21.388Z,1.25
2018-07-12T07:49:21.400Z,5.38
2018-07-12T07:50:21.321Z,5.10
2018-07-12T07:51:21.284Z,7.79
2018-07-12T07:52:21.251Z,9.61
2018-07-12T07:53:21.224Z,11.35
2018-07-12T07:54:21.197Z,10.77
2018-07-12T07:55:21.167Z,8.65
2018-07-12T07:56:21.126Z,8.75
2018-07-12T07:57:21.097Z,10.10
2018-07-12T07:58:21.064Z,8.46
2018-07-12T07:59:21.034Z,8.75
2018-07-12T08:00:21.004Z,8.17
2018-07-12T08:01:20.968Z,5.77
2018-07-12T08:02:20.937Z,6.44
2018-07-12T08:03:20.906Z,9.52
2018-07-12T08:04:20.870Z,10.00
2018-07-12T08:05:20.838Z,13.17
2018-07-12T08:06:20.812Z,15.59
2018-07-12T08:07:20.805Z,15.11
2018-07-12T08:08:20.746Z,14.81
2018-07-12T08:09:20.712Z,13.46
2018-07-12T08:10:20.680Z,13.18
2018-07-12T08:11:20.645Z,17.22
2018-07-12T08:12:20.620Z,16.64
2018-07-12T08:13:20.588Z,17.70
2018-07-12T08:14:20.552Z,14.81
2018-07-12T08:15:20.520Z,13.75
2018-07-12T08:16:20.571Z,14.04
2018-07-12T08:17:20.458Z,14.53
2018-07-12T08:18:20.429Z,14.62
2018-07-12T08:19:20.399Z,15.88
2018-07-12T08:20:20.367Z,10.87
2018-07-12T08:21:20.332Z,12.99
2018-07-12T08:22:20.302Z,12.89
2018-07-12T08:23:20.265Z,13.18
2018-07-12T08:24:20.232Z,13.76
2018-07-12T08:25:20.206Z,16.45
2018-07-12T08:26:20.175Z,20.30
2018-07-12T08:27:20.143Z,18.95
2018-07-12T08:28:20.106Z,19.34
2018-07-12T08:29:20.076Z,17.03
2018-07-12T08:30:20.048Z,18.48
2018-07-12T08:31:20.126Z,18.96
2018-07-12T08:32:19.984Z,15.98
2018-07-12T08:33:19.999Z,20.31
2018-07-12T08:34:19.920Z,24.45
2018-07-12T08:35:19.881Z,24.35
2018-07-12T08:36:19.855Z,24.74
2018-07-12T08:37:19.826Z,25.62
2018-07-12T08:38:19.794Z,27.45
2018-07-12T08:39:19.763Z,25.80
2018-07-12T08:40:19.733Z,25.43
2018-07-12T08:41:19.701Z,27.16
2018-07-12T08:42:19.823Z,27.53
2018-07-12T08:43:19.730Z,25.03
2018-07-12T08:44:19.608Z,27.35
2018-07-12T08:45:19.583Z,28.51
2018-07-12T08:46:19.723Z,28.31
2018-07-12T08:47:19.508Z,30.73
2018-07-12T08:48:19.482Z,31.78
2018-07-12T08:49:19.536Z,29.76
2018-07-12T08:50:19.418Z,29.76
2018-07-12T08:51:19.391Z,34.09
2018-07-12T08:52:19.359Z,31.49
2018-07-12T08:53:19.327Z,29.58
2018-07-12T08:54:19.292Z,34.88
2018-07-12T08:55:19.260Z,32.28
2018-07-12T08:56:19.226Z,33.25
2018-07-12T08:57:19.200Z,33.53
2018-07-12T08:58:19.173Z,31.41
2018-07-12T08:59:19.153Z,40.66
2018-07-12T09:00:19.102Z,37.27
2018-07-12T09:01:19.074Z,35.93
2018-07-12T09:02:19.046Z,33.91
2018-07-12T09:03:19.017Z,32.94
2018-07-12T09:04:18.989Z,29.94
2018-07-12T09:05:18.954Z,29.74
2018-07-12T09:06:18.921Z,29.46
2018-07-12T09:07:18.890Z,27.53
2018-07-12T09:08:18.855Z,26.09
2018-07-12T09:09:18.827Z,25.80
2018-07-12T09:12:02.489Z,23.28
2018-07-12T09:12:50.848Z,22.42
2018-07-12T09:13:50.790Z,21.07
2018-07-12T09:14:50.755Z,19.24
2018-07-12T09:15:50.763Z,21.94
2018-07-12T09:16:50.689Z,18.66
2018-07-12T09:17:50.668Z,20.30
2018-07-12T09:18:50.632Z,22.42
2018-07-12T09:19:50.597Z,23.09
2018-07-12T09:20:50.563Z,22.22
2018-07-12T09:21:50.565Z,23.67
2018-07-12T09:22:50.508Z,25.98
2018-07-12T09:23:50.476Z,25.98
2018-07-12T09:24:50.445Z,25.11
2018-07-12T09:25:50.414Z,27.23
2018-07-12T09:26:50.382Z,25.11
2018-07-12T09:27:50.347Z,23.38
2018-07-12T09:28:50.351Z,25.11
2018-07-12T09:29:50.286Z,23.38
2018-07-12T09:30:50.270Z,25.12
2018-07-12T09:31:50.226Z,28.40
2018-07-12T09:32:50.199Z,28.69
2018-07-12T09:33:50.159Z,27.24
2018-07-12T09:34:50.162Z,26.18
2018-07-12T09:35:50.099Z,27.62
2018-07-12T09:36:50.070Z,26.09
2018-07-12T09:37:50.039Z,29.27
2018-07-12T09:38:50.008Z,28.20
2018-07-12T09:39:50.027Z,28.49
2018-07-12T09:40:49.937Z,29.74
2018-07-12T09:41:49.910Z,31.38
2018-07-12T09:42:49.901Z,32.82
2018-07-12T09:43:49.851Z,30.42
2018-07-12T09:44:49.824Z,31.48
2018-07-12T09:45:49.788Z,30.52
2018-07-12T09:46:49.761Z,32.82
2018-07-12T09:47:49.724Z,32.44
2018-07-12T09:48:49.689Z,29.28
2018-07-12T09:49:49.665Z,30.24
2018-07-12T09:50:49.633Z,29.28
2018-07-12T09:51:49.598Z,27.93
2018-07-12T09:52:49.568Z,26.57
2018-07-12T09:53:49.533Z,26.68
2018-07-12T09:54:49.504Z,24.93
2018-07-12T09:55:49.522Z,27.92
2018-07-12T09:56:49.472Z,26.37
2018-07-12T09:57:49.413Z,26.37
2018-07-12T09:58:49.383Z,28.78
2018-07-12T09:59:49.348Z,27.15
2018-07-12T10:00:49.313Z,27.45
2018-07-12T10:01:49.282Z,27.64
2018-07-12T10:02:49.256Z,30.53
2018-07-12T10:03:49.227Z,32.46
2018-07-12T10:04:49.197Z,30.91
2018-07-12T10:05:49.164Z,32.56
2018-07-12T10:06:49.132Z,32.56
2018-07-12T10:07:49.108Z,29.95
2018-07-12T10:22:11.336Z,34.98
2018-07-12T10:23:11.254Z,36.02
2018-07-12T10:27:15.314Z,33.51
2018-07-12T10:28:15.241Z,38.06
2018-07-12T10:29:15.209Z,39.29
2018-07-12T10:30:15.178Z,37.37
2018-07-12T10:31:15.145Z,41.44
2018-07-12T10:32:15.106Z,42.97
2018-07-12T10:33:15.071Z,42.21
2018-07-12T10:34:15.045Z,39.89
2018-07-12T10:35:15.013Z,42.79
2018-07-12T10:36:14.975Z,43.27
2018-07-12T10:37:14.943Z,44.23
2018-07-12T10:38:14.910Z,41.92
2018-07-12T10:39:14.881Z,42.79
2018-07-12T10:40:14.855Z,44.62
2018-07-12T10:41:14.820Z,45.58
2018-07-12T10:42:14.788Z,46.45
2018-07-12T10:43:14.761Z,47.31
2018-07-12T10:44:14.723Z,47.12
2018-07-12T10:45:14.698Z,47.12
2018-07-12T10:46:14.659Z,46.06
2018-07-12T10:47:14.629Z,46.93
2018-07-12T10:48:14.599Z,46.55
2018-07-12T10:49:14.571Z,45.97
2018-07-12T10:50:14.534Z,45.77
2018-07-12T10:51:14.505Z,47.03
2018-07-12T10:52:14.474Z,45.48
2018-07-12T10:53:14.450Z,44.62
2018-07-12T10:54:14.415Z,43.27
2018-07-12T10:55:14.382Z,43.37
2018-07-12T10:56:14.353Z,42.11
2018-07-12T10:57:14.314Z,42.97
2018-07-12T10:58:14.284Z,42.88
2018-07-12T10:59:14.257Z,47.12
2018-07-12T11:00:14.225Z,45.68
2018-07-12T11:01:14.197Z,47.99
2018-07-12T11:02:14.167Z,48.08
2018-07-12T11:03:14.135Z,48.38
2018-07-12T11:04:14.099Z,48.38
2018-07-12T11:05:14.067Z,44.42
2018-07-12T11:06:14.042Z,50.11
2018-07-12T11:07:14.011Z,48.95
2018-07-12T11:08:13.975Z,47.51
2018-07-12T11:09:14.034Z,48.01
2018-07-12T11:10:13.916Z,49.27
2018-07-12T11:11:13.887Z,49.84
2018-07-12T11:12:13.854Z,47.44
2018-07-12T11:13:13.827Z,46.56
2018-07-12T11:14:13.795Z,49.27
2018-07-12T11:15:13.765Z,51.48
2018-07-12T11:16:13.730Z,51.58
2018-07-12T11:17:13.698Z,50.06
2018-07-12T11:18:13.666Z,58.42
2018-07-12T11:19:13.640Z,58.23
2018-07-12T11:20:13.610Z,57.01
2018-07-12T11:21:13.607Z,55.94
2018-07-12T11:22:13.548Z,59.61
2018-07-12T11:23:13.518Z,59.03
2018-07-12T11:24:13.490Z,60.86
2018-07-12T11:25:13.459Z,58.55
2018-07-12T11:26:13.429Z,60.10
2018-07-12T11:27:13.397Z,58.36
2018-07-12T11:28:13.409Z,58.84
2018-07-12T11:29:13.330Z,58.55
2018-07-12T11:30:13.312Z,57.49
2018-07-12T11:31:13.274Z,57.07
2018-07-12T11:32:13.243Z,54.31
2018-07-12T11:33:13.216Z,59.23
2018-07-12T11:34:13.186Z,58.75
2018-07-12T11:35:13.155Z,55.94
2018-07-12T11:36:13.161Z,62.25
2018-07-12T11:37:13.088Z,59.45
2018-07-12T11:38:13.063Z,60.86
2018-07-12T11:39:13.032Z,62.31
2018-07-12T11:40:12.999Z,60.10
2018-07-12T11:41:12.967Z,59.42
2018-07-12T11:42:12.939Z,62.44
2018-07-12T11:43:12.909Z,62.12
2018-07-12T11:44:12.880Z,60.28
2018-07-12T11:45:12.853Z,59.93
2018-07-12T11:46:12.822Z,63.79
2018-07-12T11:47:12.791Z,67.91
2018-07-12T11:48:12.758Z,65.59
2018-07-12T11:49:12.727Z,67.91
2018-07-12T11:50:12.695Z,64.28
2018-07-12T11:51:12.668Z,61.96
2018-07-12T11:52:12.641Z,64.18
2018-07-12T11:53:12.612Z,66.40
2018-07-12T11:54:12.579Z,65.91
2018-07-12T11:55:12.550Z,66.20
2018-07-12T11:56:12.520Z,65.14
2018-07-12T11:57:12.493Z,67.27
2018-07-12T11:58:12.463Z,64.47
2018-07-12T11:59:12.430Z,67.07
2018-07-12T12:00:12.397Z,67.94
2018-07-12T12:01:12.366Z,67.17
2018-07-12T12:02:12.336Z,65.82
2018-07-12T12:03:12.309Z,65.91
2018-07-12T12:04:12.284Z,66.97
2018-07-12T12:05:12.254Z,66.88
2018-07-12T12:06:12.225Z,64.76
2018-07-12T12:07:12.194Z,68.04
2018-07-12T12:08:12.157Z,70.06
2018-07-12T12:09:12.127Z,65.75
2018-07-12T12:10:12.102Z,70.00
2018-07-12T12:11:12.071Z,69.81
2018-07-12T12:12:12.040Z,72.71
2018-07-12T12:13:12.007Z,74.64
2018-07-12T12:14:11.978Z,72.61
2018-07-12T12:15:11.950Z,73.67
2018-07-12T12:16:11.923Z,72.03
2018-07-12T12:17:11.893Z,72.61
2018-07-12T12:18:11.865Z,72.42
2018-07-12T12:19:11.837Z,71.80
2018-07-12T12:20:11.802Z,71.90
2018-07-12T12:21:11.773Z,71.70
2018-07-12T12:22:11.742Z,70.58
2018-07-12T12:23:11.710Z,71.36
2018-07-12T12:24:11.691Z,72.13
2018-07-12T12:25:11.657Z,74.35
2018-07-12T12:26:11.624Z,74.54
2018-07-12T12:27:11.593Z,73.38
2018-07-12T12:28:11.569Z,70.62
2018-07-12T12:29:11.539Z,71.58
2018-07-12T12:30:11.511Z,78.25
2018-07-12T12:31:11.482Z,77.67
2018-07-12T12:32:11.445Z,76.51
2018-07-12T12:33:11.418Z,78.92
2018-07-12T12:34:11.387Z,78.54
2018-07-12T12:35:11.355Z,74.38
2018-07-12T12:36:11.332Z,78.87
2018-07-12T12:37:11.301Z,79.83
2018-07-12T12:38:11.272Z,80.90
2018-07-12T12:39:11.244Z,82.54
2018-07-12T12:40:11.213Z,79.93
2018-07-12T12:41:11.183Z,78.38
2018-07-12T12:42:11.154Z,78.44
2018-07-12T12:43:11.129Z,76.12
2018-07-12T12:44:11.095Z,75.26
2018-07-12T12:45:11.063Z,75.45
2018-07-12T12:46:11.034Z,74.10
2018-07-12T12:47:11.004Z,74.48
2018-07-12T12:48:10.983Z,78.15
2018-07-12T12:49:10.952Z,74.10
2018-07-12T12:50:10.922Z,81.15
2018-07-12T12:51:10.892Z,78.64
2018-07-12T12:52:10.859Z,79.31
2018-07-12T12:53:10.829Z,77.76
2018-07-12T12:54:10.799Z,81.09
2018-07-12T12:55:10.768Z,82.45
2018-07-12T12:56:10.746Z,83.03
2018-07-12T12:57:10.713Z,81.29
2018-07-12T12:58:10.684Z,84.95
2018-07-12T12:59:10.656Z,84.57
2018-07-12T13:00:10.647Z,86.45
2018-07-12T13:01:10.598Z,86.25
2018-07-12T13:02:10.568Z,87.90
2018-07-12T13:03:10.540Z,86.65
2018-07-12T13:04:10.508Z,87.51
2018-07-12T13:05:10.477Z,86.55
2018-07-12T13:06:10.566Z,86.21
2018-07-12T13:07:10.419Z,86.02
2018-07-12T13:08:10.440Z,86.89
2018-07-12T13:09:10.363Z,86.02
2018-07-12T13:10:10.334Z,84.86
2018-07-12T13:11:10.308Z,86.75
2018-07-12T13:12:10.375Z,86.07
2018-07-12T13:13:10.271Z,86.85
2018-07-12T13:14:10.219Z,86.75
2018-07-12T13:15:10.197Z,84.14
2018-07-12T13:16:10.155Z,86.75
2018-07-12T13:17:10.130Z,87.43
2018-07-12T13:18:10.103Z,86.07
2018-07-12T13:19:10.069Z,84.82
2018-07-12T13:20:10.045Z,86.41
2018-07-12T13:21:10.017Z,84.86
2018-07-12T13:22:09.985Z,83.55
2018-07-12T13:23:09.960Z,87.32
2018-07-12T13:24:09.931Z,87.90
2018-07-12T13:25:09.897Z,86.78
2018-07-12T13:26:09.912Z,87.41
2018-07-12T13:27:09.836Z,86.74
2018-07-12T13:28:09.841Z,87.61
2018-07-12T13:29:09.782Z,86.93
2018-07-12T13:30:09.752Z,86.74
2018-07-12T13:31:09.718Z,86.55
2018-07-12T13:32:09.695Z,84.71
2018-07-12T13:33:09.664Z,84.90
2018-07-12T13:34:09.637Z,85.25
2018-07-12T13:35:09.610Z,84.77
2018-07-12T13:36:09.579Z,84.57
2018-07-12T13:37:09.548Z,84.57
2018-07-12T13:38:09.518Z,86.16
2018-07-12T13:39:09.486Z,86.55
2018-07-12T13:40:09.465Z,85.68
2018-07-12T13:41:09.431Z,87.71